Stations météo

réclame
Mon MeteoGroup
Abisko, Suède (2022): Température de l'air & dewpoint: 20.06.2019 10:00:00 - 26.06.2019 10:00:00 (CEST)Abisko, Suède (2022): Vitesse du vent & gusts: 20.06.2019 10:00:00 - 26.06.2019 10:00:00 (CEST)Abisko, Suède (2022): Direction du vent: 20.06.2019 10:00:00 - 26.06.2019 10:00:00 (CEST)Abisko, Suède (2022): reduced air pressure: 20.06.2019 10:00:00 - 26.06.2019 10:00:00 (CEST)Abisko, Suède (2022): Quantités de précipitations: 20.06.2019 10:00:00 - 26.06.2019 10:00:00 (CEST)
Date & Time tt [°C] td [°C] ff [km/h] ff [knt] fx [km/h] fx [knt] dd ppp [hPa] rr [mm]
26.06.2019 10:00:00 7,0 4,2 13 7 - - NW 1017,1 0,0
26.06.2019 09:00:00 6,5 3,6 12 7 25 13 NNW 1017,5 0,0
26.06.2019 08:00:00 6,2 3,4 13 7 26 14 NNW 1017,7 0,0
26.06.2019 07:00:00 6,5 3,9 10 6 26 14 NW 1018,1 0,0
26.06.2019 06:00:00 6,3 3,9 15 8 33 18 NW 1018,5 0,0
26.06.2019 05:00:00 6,0 4,0 13 7 26 14 NW 1019,2 0,0
26.06.2019 04:00:00 5,8 4,1 10 6 26 14 WNW 1019,8 0,0
26.06.2019 03:00:00 5,9 4,0 11 6 24 13 NW 1020,0 0,0
26.06.2019 02:00:00 5,7 4,2 10 5 23 12 NNW 1020,4 0,0
26.06.2019 01:00:00 5,7 4,3 11 6 29 15 NNW 1020,9 0,0
26.06.2019 00:00:00 6,2 4,7 11 6 25 13 NNW 1021,1 0,0
25.06.2019 23:00:00 6,6 4,8 10 5 26 14 NW 1021,5 0,0
25.06.2019 22:00:00 6,4 4,8 15 8 35 19 NNW 1022,0 0,0
25.06.2019 21:00:00 7,1 4,4 14 7 34 19 NW 1022,1 0,0
25.06.2019 20:00:00 6,8 4,5 16 9 41 22 N 1022,4 0,0
25.06.2019 19:00:00 7,9 4,6 19 10 31 17 NNW 1022,7 0,0
25.06.2019 18:00:00 8,8 5,1 14 7 28 15 NNW 1022,9 0,0
25.06.2019 17:00:00 12,0 2,8 14 8 32 17 WNW 1023,0 0,0
25.06.2019 16:00:00 10,9 4,4 20 11 40 22 NW 1023,7 0,0
25.06.2019 15:00:00 10,9 2,8 15 8 36 19 WNW 1024,1 0,0
25.06.2019 14:00:00 9,3 4,4 8 4 35 19 NW 1024,7 0,0
25.06.2019 13:00:00 9,6 4,0 18 10 41 22 NW 1024,6 0,0
25.06.2019 12:00:00 9,1 4,0 18 10 40 21 NW 1024,6 0,0
25.06.2019 11:00:00 8,1 4,3 4 2 14 8 NNE 1025,0 0,0
25.06.2019 10:00:00 7,0 4,4 11 6 26 14 NNW 1025,4 0,0
25.06.2019 09:00:00 7,1 4,1 11 6 24 13 NNW 1025,3 0,0
25.06.2019 08:00:00 6,6 4,2 14 7 29 15 NNW 1025,4 0,0
25.06.2019 07:00:00 6,3 4,3 10 5 26 14 N 1025,5 0,0
25.06.2019 06:00:00 7,0 4,4 6 4 13 7 NW 1025,6 0,0
25.06.2019 05:00:00 5,9 3,4 6 4 18 10 N 1026,1 0,0
25.06.2019 04:00:00 6,3 3,9 10 5 21 11 WNW 1026,3 0,0
25.06.2019 03:00:00 6,0 3,3 6 4 20 11 WNW 1026,5 0,0
25.06.2019 02:00:00 6,2 3,3 6 3 26 14 WNW 1026,7 0,0
25.06.2019 01:00:00 5,8 3,9 10 5 28 15 NW 1026,9 0,0
25.06.2019 00:00:00 6,3 3,7 15 8 29 16 NW 1026,9 0,0
24.06.2019 23:00:00 6,3 4,0 13 7 29 16 NW 1026,9 0,0
24.06.2019 22:00:00 6,9 3,9 6 4 31 17 W 1026,6 0,0
24.06.2019 21:00:00 7,0 4,2 16 8 34 18 NNW 1026,3 0,0
24.06.2019 20:00:00 7,4 4,4 18 10 36 19 NW 1026,1 0,0
24.06.2019 19:00:00 7,2 4,6 22 12 35 19 NNW 1026,2 0,0
24.06.2019 18:00:00 7,5 4,9 19 10 40 22 NNW 1026,0 0,0
24.06.2019 17:00:00 8,5 4,4 18 10 37 20 NNW 1025,7 0,0
24.06.2019 16:00:00 9,1 5,1 24 13 41 22 NW 1025,6 0,0
24.06.2019 15:00:00 10,0 4,2 10 6 35 19 WNW 1025,4 0,0
24.06.2019 14:00:00 10,8 4,7 11 6 31 17 WNW 1025,0 0,0
24.06.2019 13:00:00 9,3 4,0 11 6 28 15 NW 1024,9 0,0
24.06.2019 12:00:00 8,3 5,2 12 6 40 22 WNW 1025,0 0,0
24.06.2019 11:00:00 8,4 5,0 18 10 36 19 NNW 1024,5 0,0
24.06.2019 10:00:00 9,5 4,6 6 4 12 7 NW 1023,6 0,0
24.06.2019 09:00:00 9,2 4,1 5 3 16 8 NNW 1023,3 0,0
24.06.2019 08:00:00 10,0 4,9 6 3 13 7 N 1022,9 0,0
24.06.2019 07:00:00 8,6 5,0 5 3 12 6 NW 1023,2 0,0
24.06.2019 06:00:00 8,4 5,4 4 2 10 6 N 1023,0 0,0
24.06.2019 05:00:00 6,1 4,8 4 2 9 5 ENE 1023,2 0,0
24.06.2019 04:00:00 6,7 5,6 5 3 9 5 W 1023,0 0,0
24.06.2019 03:00:00 4,7 4,1 6 3 12 6 SSW 1022,8 0,0
24.06.2019 02:00:00 5,4 4,5 5 3 7 4 SSW 1022,6 0,0
24.06.2019 01:00:00 6,6 5,0 5 3 17 9 WNW 1022,1 0,0
24.06.2019 00:00:00 7,6 4,7 8 4 14 8 NW 1021,4 0,0
23.06.2019 23:00:00 7,5 5,1 6 3 15 8 NW 1020,7 0,0
23.06.2019 22:00:00 8,0 5,5 4 2 16 9 NNW 1020,1 0,0
23.06.2019 21:00:00 8,1 6,0 10 5 26 14 NW 1019,5 0,0
23.06.2019 20:00:00 8,2 5,4 15 8 28 15 NNW 1019,0 0,0
23.06.2019 19:00:00 8,6 5,2 13 7 23 13 NNW 1018,6 0,0
23.06.2019 18:00:00 8,5 5,3 13 7 21 12 NNW 1018,3 0,0
23.06.2019 17:00:00 8,8 5,0 9 5 24 13 NNW 1018,0 0,0
23.06.2019 16:00:00 7,7 4,5 16 8 29 16 NNW 1018,0 0,0
23.06.2019 15:00:00 8,9 4,9 15 8 24 13 NNW 1017,2 0,0
23.06.2019 14:00:00 8,3 4,9 15 8 29 16 NNW 1016,9 0,0
23.06.2019 13:00:00 8,2 5,7 7 4 20 11 NNW 1016,4 0,0
23.06.2019 12:00:00 7,3 5,7 8 4 28 15 NW 1016,2 0,0
23.06.2019 11:00:00 7,7 4,9 14 7 26 14 NNW 1015,3 0,0
23.06.2019 10:00:00 7,2 5,2 13 7 30 16 NW 1014,9 0,0
23.06.2019 09:00:00 7,2 5,3 13 7 26 14 NW 1014,3 0,0
23.06.2019 08:00:00 7,0 4,7 13 7 26 14 NNW 1013,4 0,0
23.06.2019 07:00:00 6,9 4,9 14 7 27 14 NNW 1012,8 0,0
23.06.2019 06:00:00 7,0 5,2 13 7 37 20 NW 1012,2 0,0
23.06.2019 05:00:00 7,2 4,7 16 8 41 22 NW 1011,7 0,0
23.06.2019 04:00:00 7,4 4,1 19 11 40 22 WNW 1011,1 0,0
23.06.2019 03:00:00 6,4 5,1 15 8 35 19 NW 1010,9 0,0
23.06.2019 02:00:00 7,2 4,5 18 10 37 20 NW 1010,3 0,0
23.06.2019 01:00:00 7,9 2,9 19 10 42 23 W 1009,9 0,0
23.06.2019 00:00:00 7,8 2,8 24 13 37 20 W 1009,6 0,0
22.06.2019 23:00:00 7,6 3,3 20 11 40 22 WNW 1009,4 0,0
22.06.2019 22:00:00 7,3 3,7 23 12 37 20 WNW 1009,1 0,0
22.06.2019 21:00:00 7,4 3,4 23 12 44 24 W 1009,1 0,0
22.06.2019 20:00:00 7,5 3,2 17 9 34 18 WNW 1008,5 0,0
22.06.2019 19:00:00 7,4 4,3 14 8 25 14 NW 1008,3 0,0
22.06.2019 18:00:00 7,3 4,4 15 8 31 17 W 1008,1 0,0
22.06.2019 17:00:00 7,4 4,6 6 4 22 12 W 1007,8 0,0
22.06.2019 16:00:00 7,3 6,0 5 3 24 13 W 1007,4 0,0
22.06.2019 15:00:00 6,8 4,9 14 8 33 18 W 1007,2 0,0
22.06.2019 14:00:00 7,4 4,9 15 8 25 13 W 1006,4 0,0
22.06.2019 13:00:00 7,7 6,7 3 2 17 9 ESE 1005,8 0,0
22.06.2019 12:00:00 8,2 6,3 5 3 21 11 WSW 1005,3 0,0
22.06.2019 11:00:00 8,7 7,0 9 5 19 11 SSW 1004,9 0,0
22.06.2019 10:00:00 7,8 7,4 3 2 13 7 SSE 1004,9 0,0
22.06.2019 09:00:00 7,8 7,3 8 5 - - E 1005,0 0,0
22.06.2019 08:00:00 8,4 7,8 8 5 - - ESE 1004,8 0,0
22.06.2019 07:00:00 8,2 7,5 5 3 12 7 ESE 1005,1 0,0
22.06.2019 06:00:00 8,4 7,2 6 4 11 6 SE 1005,1 0,0
22.06.2019 05:00:00 8,7 7,6 2 1 10 5 S 1005,4 0,0
22.06.2019 04:00:00 8,5 7,7 3 1 12 6 NW 1005,3 0,0
22.06.2019 03:00:00 8,6 7,1 6 3 27 15 NW 1005,3 0,0
22.06.2019 02:00:00 8,6 7,9 12 6 29 16 NW 1005,1 0,0
22.06.2019 01:00:00 9,1 8,7 5 3 10 6 SE 1005,1 0,0
22.06.2019 00:00:00 9,3 9,0 2 1 6 4 E 1005,0 0,0
21.06.2019 23:00:00 9,6 9,2 4 2 8 4 WNW 1004,8 0,0
21.06.2019 22:00:00 10,0 9,6 3 1 3 2 SSW 1004,8 0,0
21.06.2019 21:00:00 9,9 9,5 0 0 7 4 N 1004,7 0,0
21.06.2019 20:00:00 9,5 9,2 4 2 9 5 NW 1004,7 0,0
21.06.2019 19:00:00 9,8 9,4 3 2 6 4 NNW 1004,6 0,0
21.06.2019 18:00:00 8,9 8,4 4 2 19 10 NW 1004,6 0,0
21.06.2019 17:00:00 10,9 8,7 10 5 30 16 ENE 1003,9 0,0
21.06.2019 16:00:00 11,0 9,6 20 11 37 20 E 1003,6 0,0
21.06.2019 15:00:00 11,2 10,2 22 12 36 19 E 1003,5 0,0
21.06.2019 14:00:00 10,8 9,7 21 11 36 19 E 1003,7 0,0
21.06.2019 13:00:00 10,9 9,8 22 12 35 19 E 1003,8 0,0
21.06.2019 12:00:00 10,1 9,5 11 6 22 12 E 1004,4 0,0
21.06.2019 11:00:00 9,8 9,0 18 10 32 18 E 1004,8 0,0
21.06.2019 10:00:00 9,9 9,0 13 7 36 19 E 1004,9 0,0
21.06.2019 09:00:00 10,0 8,5 25 14 48 26 E 1004,7 0,0
21.06.2019 08:00:00 9,8 8,0 32 17 51 27 ENE 1004,7 0,0
21.06.2019 07:00:00 9,2 8,0 31 17 47 26 E 1005,3 0,0
21.06.2019 06:00:00 9,5 7,8 24 13 49 26 E 1005,6 0,0
21.06.2019 05:00:00 9,9 7,6 27 14 43 23 E 1006,0 0,0
21.06.2019 04:00:00 10,1 7,1 20 11 33 18 E 1006,4 0,0
21.06.2019 03:00:00 11,2 6,2 14 8 31 17 E 1006,7 0,0
21.06.2019 02:00:00 10,7 7,7 21 11 45 24 E 1007,2 0,0
21.06.2019 01:00:00 10,6 7,2 13 7 32 17 ENE 1007,5 0,0
21.06.2019 00:00:00 11,4 7,4 13 7 35 19 ESE 1007,7 0,0
20.06.2019 23:00:00 11,0 7,2 19 11 36 20 E 1008,1 0,0
20.06.2019 22:00:00 11,7 6,5 9 5 32 17 ENE 1008,0 0,0
20.06.2019 21:00:00 13,3 6,0 14 8 26 14 SSE 1007,9 0,0
20.06.2019 20:00:00 15,8 4,5 10 6 35 19 ESE 1007,1 0,0
20.06.2019 19:00:00 16,9 4,5 15 8 28 15 ESE 1006,8 0,0
20.06.2019 18:00:00 18,1 3,4 15 8 32 18 SSE 1007,1 0,0
20.06.2019 17:00:00 17,9 3,2 18 10 41 22 SE 1007,4 0,0
20.06.2019 16:00:00 17,1 4,2 24 13 41 22 E 1007,8 0,0
20.06.2019 15:00:00 16,0 3,8 27 14 43 23 ENE 1008,4 0,0
20.06.2019 14:00:00 17,0 4,6 19 10 32 18 ENE 1008,9 0,0
20.06.2019 13:00:00 14,7 5,2 17 9 26 14 NE 1010,1 0,0
20.06.2019 12:00:00 13,2 4,6 9 5 21 11 N 1011,0 0,0
20.06.2019 11:00:00 13,4 4,5 8 5 17 9 NNE 1011,3 0,0
20.06.2019 10:00:00 11,6 4,8 7 4 14 8 N 1011,7 0,0

tt = Température de l'air
td = dewpoint
ff = Vitesse du vent
fx = gusts
dd = Direction du vent
ppp = reduced air pressure
rr = Quantités de précipitations

stations d'obs. à proximité